createdAt,value
2016-08-18T01:16:19.343Z,51.78
2016-08-18T01:20:40.474Z,52.36
2016-08-18T01:21:45.493Z,52.35
2016-08-18T01:22:11.999Z,52.51
2016-08-18T02:48:34.319Z,55.11
2016-08-18T02:49:36.096Z,55.32
2016-08-18T02:49:58.998Z,54.81
2016-08-18T02:50:26.569Z,55.18
2016-08-18T02:50:53.704Z,55.36
2016-08-18T02:53:01.738Z,55.40
2016-08-18T02:53:55.924Z,55.36
2016-08-18T04:17:54.802Z,54.62
2016-08-18T04:18:27.040Z,55.14
2016-08-18T04:27:56.065Z,55.29
2016-08-18T05:02:28.815Z,54.90
2016-08-18T05:14:52.442Z,57.85
2016-08-18T05:15:23.706Z,57.78
2016-08-18T05:15:53.992Z,57.42
2016-08-18T05:16:42.218Z,57.85
2016-08-18T05:17:04.987Z,57.49
2016-08-18T05:17:27.705Z,57.56
2016-08-18T05:17:52.219Z,57.95
2016-08-18T05:18:18.720Z,57.97
2016-08-18T05:18:43.391Z,58.06
2016-08-18T05:19:07.727Z,58.10
2016-08-18T05:19:56.981Z,58.04
2016-08-18T05:20:26.475Z,57.57
2016-08-18T05:20:51.156Z,57.38
2016-08-18T05:21:44.739Z,56.78
2016-08-18T05:22:13.074Z,56.75
2016-08-18T05:22:42.566Z,57.16
2016-08-18T05:23:09.063Z,57.23
2016-08-18T05:23:30.799Z,57.00
2016-08-18T05:23:52.522Z,57.03
2016-08-18T05:24:21.682Z,56.33
2016-08-18T05:24:46.316Z,56.01
2016-08-18T05:25:09.176Z,56.31
2016-08-18T05:25:35.800Z,57.07
2016-08-18T05:25:57.552Z,57.17
2016-08-18T05:26:19.273Z,57.40
2016-08-18T05:26:41.998Z,58.04
2016-08-18T05:27:08.485Z,58.33
2016-08-18T05:27:39.751Z,58.26
2016-08-18T05:28:06.766Z,57.64
2016-08-18T05:28:28.590Z,57.41
2016-08-18T05:28:50.305Z,57.29
2016-08-18T05:29:16.804Z,57.49
2016-08-18T05:29:38.558Z,57.20
2016-08-18T05:30:00.285Z,56.87
2016-08-18T05:30:22.014Z,56.52
2016-08-18T05:30:48.501Z,56.13
2016-08-18T05:31:10.230Z,55.85
2016-08-18T05:33:05.771Z,56.00
2016-08-18T05:33:38.157Z,56.49
2016-08-18T05:35:32.087Z,57.01
2016-08-18T05:36:55.886Z,56.14
2016-08-18T05:37:17.631Z,56.12
2016-08-18T05:37:45.929Z,56.21
2016-08-18T05:38:49.881Z,56.18
2016-08-18T05:39:11.609Z,56.19
2016-08-18T05:39:33.333Z,56.13
2016-08-18T05:39:55.118Z,56.41
2016-08-18T05:40:16.842Z,56.54
2016-08-18T05:40:38.581Z,56.73
2016-08-18T05:41:00.337Z,56.80
2016-08-18T05:41:22.058Z,57.07
2016-08-18T05:41:43.781Z,56.94
2016-08-18T05:42:08.550Z,56.77
2016-08-18T05:42:30.300Z,56.75
2016-08-18T05:42:52.117Z,56.72
2016-08-18T05:43:13.893Z,57.00
2016-08-18T05:44:06.139Z,56.99
2016-08-18T05:44:32.638Z,56.12
2016-08-18T05:44:54.395Z,55.96
2016-08-18T05:46:13.936Z,56.47
2016-08-18T05:46:39.398Z,56.53
2016-08-18T05:47:06.905Z,56.46
2016-08-18T05:47:28.641Z,56.45
2016-08-18T05:47:54.988Z,56.57
2016-08-18T05:48:44.356Z,56.49
2016-08-18T05:51:21.537Z,56.52
2016-08-18T05:51:44.302Z,56.35
2016-08-18T05:52:08.103Z,56.23
2016-08-18T05:52:31.851Z,56.21
2016-08-18T05:52:58.355Z,56.28
2016-08-18T05:54:01.871Z,56.17
2016-08-18T05:54:28.378Z,56.12
2016-08-18T05:54:50.123Z,56.13
2016-08-18T05:55:18.629Z,56.01
2016-08-18T05:55:40.389Z,55.94
2016-08-18T05:56:34.392Z,55.30
2016-08-18T05:56:57.525Z,55.25
2016-08-18T05:57:24.030Z,55.14
2016-08-18T05:58:13.334Z,55.31
2016-08-18T05:58:35.177Z,55.37
2016-08-18T05:59:01.794Z,55.60
2016-08-18T05:59:23.669Z,56.15
2016-08-18T05:59:45.672Z,55.85
2016-08-18T06:00:07.568Z,56.07
2016-08-18T06:00:32.823Z,55.34
2016-08-18T06:00:54.733Z,55.17
2016-08-18T06:01:26.081Z,55.46
2016-08-18T06:01:48.805Z,55.48
2016-08-18T06:02:10.615Z,55.42
2016-08-18T06:02:32.361Z,55.41
2016-08-18T06:02:54.148Z,55.26
2016-08-18T06:03:20.644Z,55.04
2016-08-18T06:03:42.420Z,55.19
2016-08-18T06:04:10.046Z,55.10
2016-08-18T06:04:31.781Z,55.08
2016-08-18T06:04:53.523Z,55.20
2016-08-18T06:05:15.254Z,55.33
2016-08-18T06:05:38.060Z,54.89
2016-08-18T06:05:59.843Z,55.12
2016-08-18T06:06:21.606Z,55.06
2016-08-18T06:06:43.361Z,54.82
2016-08-18T06:07:07.166Z,55.03
2016-08-18T06:07:30.050Z,54.97
2016-08-18T06:07:56.734Z,55.17
2016-08-18T06:08:18.603Z,55.09
2016-08-18T06:08:42.518Z,55.17
2016-08-18T06:09:05.271Z,54.95
2016-08-18T06:09:27.008Z,55.00
2016-08-18T06:09:58.312Z,54.99
2016-08-18T06:10:25.476Z,54.83
2016-08-18T06:10:52.492Z,55.03
2016-08-18T06:11:14.383Z,54.92
2016-08-18T06:11:41.067Z,54.95
2016-08-18T06:12:02.824Z,54.57
2016-08-18T06:12:24.639Z,54.52
2016-08-18T06:12:46.847Z,55.12
2016-08-18T06:13:08.705Z,54.54
2016-08-18T06:13:31.772Z,54.89
2016-08-18T06:14:29.683Z,55.40
2016-08-18T06:14:52.553Z,55.44
2016-08-18T06:15:20.785Z,55.65
2016-08-18T06:15:42.623Z,55.42
2016-08-18T06:16:05.371Z,55.18
2016-08-18T06:16:27.157Z,55.24
2016-08-18T06:16:49.909Z,55.32
2016-08-18T06:17:21.826Z,55.35
2016-08-18T06:18:20.158Z,55.47
2016-08-18T06:18:41.926Z,55.96
2016-08-18T06:19:03.672Z,55.54
2016-08-18T06:19:26.408Z,55.38
2016-08-18T06:19:52.925Z,55.03
2016-08-18T06:20:46.985Z,54.54
2016-08-18T06:21:08.733Z,54.70
2016-08-18T06:21:35.342Z,54.77
2016-08-18T06:21:57.151Z,54.76
2016-08-18T06:22:19.066Z,54.68
2016-08-18T06:22:41.065Z,54.54
2016-08-18T06:23:44.527Z,54.94
2016-08-18T06:24:06.454Z,54.95
2016-08-18T06:24:32.962Z,55.03
2016-08-18T06:24:54.854Z,55.00
2016-08-18T06:25:17.813Z,54.82
2016-08-18T06:25:45.607Z,54.80
2016-08-18T06:26:07.404Z,55.16
2016-08-18T06:26:29.206Z,55.03
2016-08-18T06:26:51.209Z,54.91
2016-08-18T06:27:13.059Z,54.94
2016-08-18T06:27:35.052Z,55.06
2016-08-18T06:28:29.169Z,54.15
2016-08-18T06:28:50.950Z,53.82
2016-08-18T06:29:12.773Z,53.69
2016-08-18T06:29:34.782Z,53.61
2016-08-18T06:29:59.151Z,53.87
2016-08-18T06:30:21.231Z,53.81
2016-08-18T06:30:43.007Z,53.82
2016-08-18T06:31:33.409Z,54.01
2016-08-18T06:32:00.920Z,53.97
2016-08-18T06:32:23.711Z,53.76
2016-08-18T06:33:12.206Z,54.17
2016-08-18T06:33:38.790Z,54.42
2016-08-18T06:34:00.668Z,54.43
2016-08-18T06:34:22.473Z,54.66
2016-08-18T06:35:16.514Z,55.01
2016-08-18T06:36:10.653Z,54.87
2016-08-18T06:36:33.493Z,55.03
2016-08-18T06:36:55.235Z,54.76
2016-08-18T06:37:16.962Z,54.66
2016-08-18T06:37:38.679Z,54.67
2016-08-18T06:38:00.447Z,54.58
2016-08-18T06:38:22.166Z,54.88
2016-08-18T06:38:43.881Z,54.98
2016-08-18T06:39:05.608Z,54.99
2016-08-18T06:39:27.417Z,54.65
2016-08-18T06:39:49.125Z,54.49
2016-08-18T06:40:11.317Z,54.43
2016-08-18T06:40:33.036Z,54.44
2016-08-18T06:40:54.757Z,54.78
2016-08-18T06:41:16.471Z,54.80
2016-08-18T06:41:38.187Z,54.97
2016-08-18T06:41:59.899Z,55.16
2016-08-18T06:42:21.620Z,55.17
2016-08-18T06:42:43.376Z,55.39
2016-08-18T06:43:05.103Z,55.51
2016-08-18T06:43:26.831Z,55.50
2016-08-18T06:43:48.556Z,55.20
2016-08-18T06:44:10.358Z,55.11
2016-08-18T06:44:32.084Z,55.13
2016-08-18T06:44:53.809Z,55.67
2016-08-18T06:45:15.601Z,55.72
2016-08-18T06:45:37.323Z,55.85
2016-08-18T06:45:59.037Z,56.11
2016-08-18T06:46:20.748Z,55.86
2016-08-18T06:46:43.461Z,55.63
2016-08-18T06:47:05.177Z,55.63
2016-08-18T06:47:26.924Z,55.28
2016-08-18T06:47:48.641Z,55.19
2016-08-18T06:48:15.127Z,54.89
2016-08-18T06:48:36.845Z,55.01
2016-08-18T06:48:58.573Z,54.94
2016-08-18T06:49:20.294Z,55.03
2016-08-18T06:49:42.013Z,55.44
2016-08-18T06:50:04.147Z,55.24
2016-08-18T06:50:25.857Z,54.99
2016-08-18T06:50:47.600Z,54.84
2016-08-18T06:51:09.319Z,54.89
2016-08-18T06:51:31.036Z,54.71
2016-08-18T06:51:52.758Z,55.51
2016-08-18T06:52:14.494Z,55.54
2016-08-18T06:52:36.216Z,56.04
2016-08-18T06:52:57.941Z,55.94
2016-08-18T06:53:19.662Z,55.74
2016-08-18T06:53:41.515Z,55.78
2016-08-18T06:54:03.247Z,56.19
2016-08-18T06:54:24.968Z,56.03
2016-08-18T06:54:46.686Z,55.86
2016-08-18T06:55:08.403Z,55.80
2016-08-18T06:55:30.146Z,55.50
2016-08-18T06:55:51.862Z,55.41
2016-08-18T06:56:13.582Z,55.67
2016-08-18T06:56:35.307Z,55.72
2016-08-18T06:56:57.032Z,55.82
2016-08-18T06:57:18.787Z,56.07
2016-08-18T06:57:40.476Z,55.79
2016-08-18T06:58:02.211Z,55.51
2016-08-18T06:58:23.911Z,55.28
2016-08-18T06:58:45.635Z,55.30
2016-08-18T06:59:07.354Z,55.25
2016-08-18T06:59:29.077Z,55.21
2016-08-18T06:59:50.873Z,55.24
2016-08-18T07:00:13.138Z,55.22
2016-08-18T07:00:34.911Z,55.44
2016-08-18T07:00:56.661Z,55.20
2016-08-18T07:01:18.383Z,55.26
2016-08-18T07:01:40.149Z,55.40
2016-08-18T07:02:06.750Z,55.45
2016-08-18T07:02:33.354Z,55.62
2016-08-18T07:02:55.080Z,55.54
2016-08-18T07:03:16.797Z,55.67
2016-08-18T07:03:38.540Z,55.48
2016-08-18T07:04:00.262Z,55.62
2016-08-18T07:04:21.982Z,55.90
2016-08-18T07:04:43.708Z,55.91
2016-08-18T07:05:05.425Z,56.08
2016-08-18T07:05:27.175Z,55.99
2016-08-18T07:05:53.666Z,55.99
2016-08-18T07:06:15.391Z,56.14
2016-08-18T07:06:37.231Z,56.49
2016-08-18T07:06:58.947Z,56.39
2016-08-18T07:07:20.671Z,56.14
2016-08-18T07:07:42.389Z,55.95
2016-08-18T07:08:04.147Z,55.58
2016-08-18T07:08:25.855Z,55.43
2016-08-18T07:08:47.688Z,55.50
2016-08-18T07:09:09.428Z,55.43
2016-08-18T07:09:31.279Z,55.16
2016-08-18T07:09:52.995Z,55.36
2016-08-18T07:10:15.320Z,55.28
2016-08-18T07:10:37.157Z,55.00
2016-08-18T07:10:58.885Z,54.98
2016-08-18T07:11:20.607Z,54.88
2016-08-18T07:11:42.426Z,54.76
2016-08-18T07:12:04.139Z,54.64
2016-08-18T07:12:25.865Z,54.38
2016-08-18T07:12:47.578Z,54.01
2016-08-18T07:13:09.302Z,53.58
2016-08-18T07:13:31.030Z,53.34
2016-08-18T07:13:52.757Z,53.73
2016-08-18T07:14:17.430Z,53.46
2016-08-18T07:14:43.923Z,53.38
2016-08-18T07:15:05.695Z,53.03
2016-08-18T07:15:27.416Z,52.77
2016-08-18T07:15:49.135Z,52.63
2016-08-18T07:16:10.872Z,52.44
2016-08-18T07:16:32.608Z,52.50
2016-08-18T07:16:54.345Z,52.44
2016-08-18T07:17:16.188Z,52.60
2016-08-18T07:17:37.909Z,52.78
2016-08-18T07:17:59.640Z,52.65
2016-08-18T07:18:21.360Z,52.42
2016-08-18T07:18:43.142Z,52.27
2016-08-18T07:19:04.869Z,52.24
2016-08-18T07:19:26.591Z,52.23
2016-08-18T07:19:48.336Z,52.18
2016-08-18T07:20:10.037Z,51.74
2016-08-18T07:20:31.756Z,52.08
2016-08-18T07:20:53.472Z,52.48
2016-08-18T07:21:15.196Z,52.22
2016-08-18T07:21:36.922Z,52.17
2016-08-18T07:21:58.647Z,52.12
2016-08-18T07:22:20.380Z,52.10
2016-08-18T07:22:42.096Z,52.09
2016-08-18T07:23:03.825Z,52.20
2016-08-18T07:23:25.546Z,52.17
2016-08-18T07:23:47.266Z,52.37
2016-08-18T07:24:08.991Z,52.37
2016-08-18T07:24:30.720Z,52.17
2016-08-18T07:24:52.431Z,51.95
2016-08-18T07:25:14.153Z,51.83
2016-08-18T07:25:40.640Z,51.80
2016-08-18T07:26:02.432Z,51.84
2016-08-18T07:26:24.140Z,52.30
2016-08-18T07:26:45.874Z,52.07
2016-08-18T07:27:10.434Z,52.00
2016-08-18T07:27:32.149Z,51.48
2016-08-18T07:27:53.868Z,51.48
2016-08-18T07:28:15.605Z,51.84
2016-08-18T07:28:37.319Z,51.79
2016-08-18T07:28:59.036Z,51.85
2016-08-18T07:29:20.776Z,51.71
2016-08-18T07:29:42.506Z,51.72
2016-08-18T07:30:04.223Z,51.80
2016-08-18T07:30:25.941Z,51.57
2016-08-18T07:30:47.676Z,51.53
2016-08-18T07:31:09.394Z,51.72
2016-08-18T07:31:31.119Z,51.90
2016-08-18T07:31:52.845Z,52.01
2016-08-18T07:32:14.575Z,52.07
2016-08-18T07:32:36.323Z,52.13
2016-08-18T07:32:58.043Z,52.75
2016-08-18T07:33:22.310Z,52.62
2016-08-18T07:33:44.057Z,52.32
2016-08-18T07:34:05.781Z,52.35
2016-08-18T07:34:27.503Z,52.19
2016-08-18T07:34:49.233Z,52.43
2016-08-18T07:35:10.955Z,52.38
2016-08-18T07:35:35.410Z,52.12
2016-08-18T07:36:00.151Z,52.18
2016-08-18T07:36:31.202Z,52.31
2016-08-18T07:36:52.940Z,52.16
2016-08-18T07:37:14.656Z,52.24
2016-08-18T07:37:36.379Z,51.98
2016-08-18T07:37:58.099Z,52.31
2016-08-18T07:38:19.826Z,52.22
2016-08-18T07:38:41.581Z,52.50
2016-08-18T07:39:03.309Z,52.14
2016-08-18T07:39:25.027Z,52.05
2016-08-18T07:39:46.748Z,51.98
2016-08-18T07:40:10.534Z,51.85
2016-08-18T07:40:37.661Z,51.85
2016-08-18T07:41:28.258Z,51.84
2016-08-18T07:41:49.977Z,51.92
2016-08-18T07:42:11.694Z,52.69
2016-08-18T07:42:33.409Z,52.55
2016-08-18T07:42:55.196Z,52.32
2016-08-18T07:43:17.904Z,52.14
2016-08-18T07:43:39.620Z,51.87
2016-08-18T07:44:01.344Z,51.39
2016-08-18T07:44:23.063Z,51.07
2016-08-18T07:44:44.787Z,51.06
2016-08-18T07:45:06.498Z,51.21
2016-08-18T07:45:28.214Z,51.15
2016-08-18T07:45:49.940Z,51.40
2016-08-18T07:46:11.661Z,51.21
2016-08-18T07:46:33.385Z,51.28
2016-08-18T07:46:55.087Z,51.33
2016-08-18T07:47:16.813Z,50.97
2016-08-18T07:47:38.533Z,51.04
2016-08-18T07:48:00.283Z,50.97
2016-08-18T07:48:48.493Z,51.04
2016-08-18T07:49:11.207Z,51.10
2016-08-18T07:49:33.923Z,51.08
2016-08-18T07:49:58.780Z,51.07
2016-08-18T07:50:20.506Z,50.99
2016-08-18T07:50:42.226Z,51.01
2016-08-18T07:51:04.911Z,51.03
2016-08-18T07:51:26.697Z,50.99
2016-08-18T07:51:49.478Z,50.99
2016-08-18T07:52:11.246Z,51.11
2016-08-18T07:52:32.969Z,51.05
2016-08-18T07:52:54.700Z,51.05
2016-08-18T07:53:16.499Z,50.99
2016-08-18T07:53:44.090Z,50.79
2016-08-18T07:54:05.810Z,50.73
2016-08-18T07:54:27.577Z,50.75
2016-08-18T07:54:54.103Z,50.59
2016-08-18T07:55:45.176Z,50.57
2016-08-18T07:56:06.901Z,50.59
2016-08-18T07:56:28.634Z,50.60
2016-08-18T07:56:50.368Z,50.58
2016-08-18T07:57:12.085Z,50.58
2016-08-18T07:57:33.801Z,50.59
2016-08-18T07:57:55.522Z,50.55
2016-08-18T07:58:17.357Z,50.64
2016-08-18T07:58:39.177Z,50.67
2016-08-18T07:59:00.895Z,50.75
2016-08-18T07:59:22.624Z,50.87
2016-08-18T07:59:48.443Z,50.71
2016-08-18T08:00:11.158Z,50.50
2016-08-18T08:00:32.898Z,50.50
2016-08-18T08:00:54.639Z,50.52
2016-08-18T08:01:16.361Z,50.16
2016-08-18T08:01:38.223Z,50.07
2016-08-18T08:02:04.713Z,50.24
2016-08-18T08:02:36.978Z,50.43
2016-08-18T08:03:06.066Z,50.59
2016-08-18T08:03:27.800Z,50.32
2016-08-18T08:03:49.522Z,50.43
2016-08-18T08:04:11.270Z,50.34
2016-08-18T08:04:32.989Z,50.37
2016-08-18T08:04:54.707Z,50.30
2016-08-18T08:05:16.443Z,50.32
2016-08-18T08:05:38.175Z,50.38
2016-08-18T08:05:59.928Z,50.27
2016-08-18T08:06:21.651Z,50.14
2016-08-18T08:06:46.306Z,49.92
2016-08-18T08:07:08.028Z,49.93
2016-08-18T08:07:29.804Z,49.92
2016-08-18T08:07:51.534Z,49.85
2016-08-18T08:08:13.249Z,49.90
2016-08-18T08:08:34.981Z,49.61
2016-08-18T08:08:56.693Z,49.87
2016-08-18T08:09:18.430Z,49.85
2016-08-18T08:09:40.153Z,49.79
2016-08-18T08:10:03.786Z,50.01
2016-08-18T08:10:25.508Z,50.16
2016-08-18T08:10:47.284Z,50.05
2016-08-18T08:11:09.002Z,49.75
2016-08-18T08:11:30.731Z,49.42
2016-08-18T08:11:53.464Z,49.55
2016-08-18T08:12:15.188Z,49.61
2016-08-18T08:12:36.932Z,49.58
2016-08-18T08:12:58.646Z,49.71
2016-08-18T08:13:20.357Z,49.57
2016-08-18T08:13:42.092Z,49.46
2016-08-18T08:14:03.816Z,49.68
2016-08-18T08:14:25.561Z,50.18
2016-08-18T08:14:47.299Z,50.04
2016-08-18T08:15:09.091Z,50.06
2016-08-18T08:15:30.850Z,49.99
2016-08-18T08:15:52.563Z,50.21
2016-08-18T08:16:14.306Z,50.21
2016-08-18T08:16:37.026Z,50.80
2016-08-18T08:16:59.176Z,50.60
2016-08-18T08:17:20.916Z,50.64
2016-08-18T08:17:42.666Z,50.66
2016-08-18T08:18:04.400Z,50.10
2016-08-18T08:18:28.911Z,49.87
2016-08-18T08:18:50.646Z,49.81
2016-08-18T08:19:12.370Z,49.74
2016-08-18T08:19:34.110Z,49.75
2016-08-18T08:19:55.819Z,49.59
2016-08-18T08:20:20.200Z,49.57
2016-08-18T08:20:42.918Z,49.52
2016-08-18T08:21:04.645Z,49.44
2016-08-18T08:21:26.424Z,49.35
2016-08-18T08:21:48.268Z,49.32
2016-08-18T08:22:10.141Z,49.33
2016-08-18T08:22:32.918Z,49.22
2016-08-18T08:22:54.652Z,49.31
2016-08-18T08:23:16.388Z,49.35
2016-08-18T08:23:38.111Z,49.17
2016-08-18T08:24:00.132Z,49.22
2016-08-18T08:24:24.645Z,49.26
2016-08-18T08:24:46.424Z,49.32
2016-08-18T08:25:08.143Z,49.40
2016-08-18T08:25:30.021Z,49.53
2016-08-18T08:25:51.748Z,49.17
2016-08-18T08:26:13.474Z,49.23
2016-08-18T08:26:35.194Z,49.17
2016-08-18T08:26:56.917Z,49.20
2016-08-18T08:27:18.632Z,49.21
2016-08-18T08:27:40.623Z,49.00
2016-08-18T08:28:02.368Z,49.00
2016-08-18T08:28:24.144Z,48.97
2016-08-18T08:28:45.919Z,49.29
2016-08-18T08:29:07.730Z,49.14
2016-08-18T08:29:29.575Z,48.87
2016-08-18T08:29:52.565Z,48.67
2016-08-18T08:30:14.279Z,48.68
2016-08-18T08:30:36.131Z,48.90
2016-08-18T08:30:57.862Z,48.82
2016-08-18T08:31:19.865Z,48.90
2016-08-18T08:31:41.859Z,48.93
2016-08-18T08:32:03.512Z,49.28
2016-08-18T08:32:25.357Z,49.25
2016-08-18T08:32:47.093Z,49.42
2016-08-18T08:33:08.920Z,49.26
2016-08-18T08:33:30.700Z,49.08
2016-08-18T08:33:52.611Z,49.28
2016-08-18T08:34:14.620Z,48.86
2016-08-18T08:34:36.395Z,48.75
2016-08-18T08:34:58.208Z,48.43
2016-08-18T08:35:23.894Z,48.46
2016-08-18T08:35:45.624Z,48.52
2016-08-18T08:36:07.355Z,48.56
2016-08-18T08:36:29.133Z,48.58
2016-08-18T08:36:52.584Z,48.58
2016-08-18T08:37:14.533Z,48.64
2016-08-18T08:37:36.312Z,48.12
2016-08-18T08:37:58.069Z,48.74
2016-08-18T08:38:19.760Z,48.64
2016-08-18T08:38:42.028Z,48.37
2016-08-18T08:39:04.207Z,47.93
2016-08-18T08:39:26.041Z,48.30
2016-08-18T08:39:47.848Z,48.45
2016-08-18T08:40:14.161Z,48.66
2016-08-18T08:40:35.801Z,48.78
2016-08-18T08:40:57.532Z,48.53
2016-08-18T08:41:19.264Z,48.32
2016-08-18T08:41:45.765Z,48.24
2016-08-18T08:42:07.491Z,48.01
2016-08-18T08:42:29.234Z,48.20
2016-08-18T08:42:50.967Z,48.21
2016-08-18T08:43:13.622Z,48.17
2016-08-18T08:43:35.352Z,48.35
2016-08-18T08:43:57.078Z,48.26
2016-08-18T08:44:21.747Z,48.00
2016-08-18T08:44:48.255Z,48.22
2016-08-18T08:45:10.012Z,48.26
2016-08-18T08:45:31.816Z,48.25
2016-08-18T08:45:53.901Z,48.18
2016-08-18T08:46:15.669Z,48.08
2016-08-18T08:46:37.399Z,48.21
2016-08-18T08:46:59.124Z,48.21
2016-08-18T08:47:20.862Z,48.28
2016-08-18T08:47:42.746Z,48.36
2016-08-18T08:48:04.477Z,48.18
2016-08-18T08:48:26.229Z,48.38
2016-08-18T08:48:47.966Z,49.03
2016-08-18T08:49:09.740Z,49.19
2016-08-18T08:49:31.462Z,49.30
2016-08-18T08:49:53.194Z,49.40
2016-08-18T08:50:14.944Z,49.54
2016-08-18T08:50:39.420Z,49.61
2016-08-18T08:51:02.427Z,49.92
2016-08-18T08:51:25.158Z,49.96
2016-08-18T08:51:46.896Z,50.11
2016-08-18T08:52:08.712Z,50.51
2016-08-18T08:52:30.762Z,50.15
2016-08-18T08:52:52.778Z,50.04
2016-08-18T08:53:20.516Z,50.44
2016-08-18T08:53:42.367Z,50.32
2016-08-18T08:54:04.267Z,50.87
2016-08-18T08:54:26.225Z,50.58
2016-08-18T08:54:48.194Z,50.28
2016-08-18T08:55:13.429Z,49.72
2016-08-18T08:55:39.906Z,49.64
2016-08-18T08:56:01.868Z,49.26
2016-08-18T08:56:24.925Z,49.56
2016-08-18T08:56:46.962Z,49.91
2016-08-18T08:57:08.791Z,50.12
2016-08-18T08:57:32.073Z,50.48
2016-08-18T08:57:54.189Z,50.65
2016-08-18T08:58:16.033Z,50.64
2016-08-18T08:58:37.940Z,50.61
2016-08-18T08:58:59.907Z,50.66
2016-08-18T08:59:22.794Z,50.61
2016-08-18T08:59:44.540Z,50.71
2016-08-18T09:00:06.422Z,50.79
2016-08-18T09:00:28.211Z,50.56
2016-08-18T09:00:49.951Z,50.34
2016-08-18T09:01:11.872Z,50.30
2016-08-18T09:01:33.623Z,50.46
2016-08-18T09:01:55.506Z,50.80
2016-08-18T09:02:17.322Z,50.96
2016-08-18T09:02:39.226Z,51.27
2016-08-18T09:03:01.275Z,51.00
2016-08-18T09:03:23.044Z,51.08
2016-08-18T09:03:44.927Z,51.34
2016-08-18T09:04:06.787Z,51.45
2016-08-18T09:04:55.267Z,51.73
2016-08-18T09:05:17.017Z,51.79
2016-08-18T09:05:38.895Z,51.72
2016-08-18T09:06:00.786Z,51.91
2016-08-18T09:06:22.533Z,51.88
2016-08-18T09:07:11.939Z,51.81
2016-08-18T09:07:33.884Z,52.06
2016-08-18T09:08:01.379Z,51.95
2016-08-18T09:08:24.113Z,51.50
2016-08-18T09:08:45.926Z,50.28
2016-08-18T09:09:07.817Z,51.05
2016-08-18T09:09:29.565Z,50.94
2016-08-18T09:09:51.416Z,51.23
2016-08-18T09:10:13.175Z,51.56
2016-08-18T09:11:01.497Z,51.58
2016-08-18T09:11:23.290Z,51.59
2016-08-18T09:11:50.817Z,51.53
2016-08-18T09:12:41.101Z,51.69
2016-08-18T09:13:02.845Z,51.54
2016-08-18T09:13:29.348Z,51.84
2016-08-18T09:13:51.107Z,51.83
2016-08-18T09:14:12.863Z,51.86
2016-08-18T09:14:39.426Z,51.82
2016-08-18T09:15:01.292Z,51.96
2016-08-18T09:15:24.715Z,52.05
2016-08-18T09:15:46.625Z,51.76
2016-08-18T09:16:08.428Z,51.51
2016-08-18T09:16:30.242Z,51.42
2016-08-18T09:16:51.999Z,51.44
2016-08-18T09:17:13.837Z,51.50
2016-08-18T09:17:35.798Z,51.90
2016-08-18T09:17:57.663Z,51.80
2016-08-18T09:18:19.928Z,51.60
2016-08-18T09:18:41.766Z,51.27
2016-08-18T09:19:03.689Z,51.10
2016-08-18T09:19:25.495Z,51.25
2016-08-18T09:20:15.776Z,51.11
2016-08-18T09:20:37.519Z,50.94
2016-08-18T09:20:59.270Z,50.68
2016-08-18T09:21:21.023Z,50.61
2016-08-18T09:21:43.796Z,50.62
2016-08-18T09:22:15.110Z,51.01
2016-08-18T09:22:41.619Z,50.64
2016-08-18T09:23:04.371Z,50.42
2016-08-18T09:23:35.656Z,50.39
2016-08-18T09:23:57.468Z,50.34
2016-08-18T09:24:19.404Z,50.36
2016-08-18T09:24:41.534Z,50.51
2016-08-18T09:25:03.974Z,50.45
2016-08-18T09:25:27.471Z,50.57
2016-08-18T09:25:49.271Z,50.23
2016-08-18T09:26:11.075Z,50.58
2016-08-18T09:26:32.829Z,50.44
2016-08-18T09:26:55.713Z,50.30
2016-08-18T09:27:18.641Z,50.48
2016-08-18T09:27:40.496Z,50.54
2016-08-18T09:28:05.009Z,50.33
2016-08-18T09:28:26.951Z,50.26
2016-08-18T09:29:15.357Z,50.30
2016-08-18T09:29:37.222Z,50.18
2016-08-18T09:29:59.133Z,50.17
2016-08-18T09:30:21.316Z,50.05
2016-08-18T09:30:44.686Z,50.14
2016-08-18T09:31:06.582Z,50.08
2016-08-18T09:31:33.185Z,50.08
2016-08-18T09:31:55.379Z,50.17
2016-08-18T09:32:17.306Z,50.49
2016-08-18T09:32:40.122Z,50.61
2016-08-18T09:33:02.261Z,50.75
2016-08-18T09:33:24.002Z,50.07
2016-08-18T09:33:45.747Z,50.13
2016-08-18T09:34:08.483Z,49.53
2016-08-18T09:34:30.233Z,49.39
2016-08-18T09:35:01.569Z,49.14
2016-08-18T09:35:24.096Z,49.29
2016-08-18T09:35:46.358Z,49.44
2016-08-18T09:36:12.916Z,49.59
2016-08-18T09:36:35.767Z,49.73
2016-08-18T09:36:57.602Z,49.64
2016-08-18T09:37:19.468Z,49.81
2016-08-18T09:37:41.500Z,49.74
2016-08-18T09:38:03.298Z,49.65
2016-08-18T09:38:25.154Z,49.58
2016-08-18T09:38:47.010Z,49.61
2016-08-18T09:39:08.935Z,49.59
2016-08-18T09:39:31.747Z,50.20
2016-08-18T09:39:53.603Z,50.02
2016-08-18T09:40:15.583Z,50.14
2016-08-18T09:41:08.584Z,50.15
2016-08-18T09:41:31.325Z,49.89
2016-08-18T09:41:57.887Z,49.96
2016-08-18T09:42:19.610Z,49.34
2016-08-18T09:42:41.466Z,49.45
2016-08-18T09:43:03.208Z,50.12
2016-08-18T09:43:24.974Z,49.95
2016-08-18T09:43:46.691Z,49.75
2016-08-18T09:44:08.602Z,49.24
2016-08-18T09:44:30.601Z,49.45
2016-08-18T09:44:52.447Z,49.93
2016-08-18T09:45:14.858Z,49.78
2016-08-18T09:45:36.886Z,49.87
2016-08-18T09:45:58.811Z,48.73
2016-08-18T09:46:20.672Z,48.53
2016-08-18T09:46:42.538Z,48.56
2016-08-18T09:47:04.374Z,48.68
2016-08-18T09:47:27.158Z,49.03
2016-08-18T09:47:49.109Z,49.17
2016-08-18T09:48:11.063Z,49.18
2016-08-18T09:48:32.986Z,49.70
2016-08-18T09:48:54.957Z,48.51
2016-08-18T09:49:16.796Z,47.84
2016-08-18T09:49:38.607Z,47.88
2016-08-18T09:50:00.439Z,48.41
2016-08-18T09:50:51.141Z,48.65
2016-08-18T09:51:18.672Z,48.68
2016-08-18T09:51:40.487Z,48.77
2016-08-18T09:52:02.243Z,48.45
2016-08-18T09:52:26.519Z,48.60
2016-08-18T09:52:48.286Z,48.33
2016-08-18T09:53:10.293Z,48.43
2016-08-18T09:53:33.141Z,48.42
2016-08-18T09:53:55.093Z,48.51
2016-08-18T09:54:17.009Z,48.71
2016-08-18T09:54:48.335Z,47.40
2016-08-18T09:55:11.214Z,47.10
2016-08-18T09:55:33.003Z,47.32
2016-08-18T09:55:54.803Z,47.68
2016-08-18T09:56:16.712Z,47.49
2016-08-18T09:56:38.602Z,47.25
2016-08-18T09:57:00.467Z,47.44
2016-08-18T09:57:22.336Z,47.33
2016-08-18T09:57:44.135Z,47.44
2016-08-18T09:58:06.252Z,47.59
2016-08-18T09:58:28.230Z,47.71
2016-08-18T09:58:50.319Z,47.82
2016-08-18T09:59:12.343Z,48.03
2016-08-18T09:59:34.153Z,48.46
2016-08-18T09:59:57.309Z,48.56
2016-08-18T10:00:50.720Z,48.91
2016-08-18T10:01:12.517Z,48.16
2016-08-18T10:01:34.332Z,47.79
2016-08-18T10:01:56.233Z,47.50
2016-08-18T10:02:18.135Z,47.29
2016-08-18T10:02:39.935Z,46.88
2016-08-18T10:03:03.685Z,46.87
2016-08-18T10:03:25.590Z,47.12
2016-08-18T10:03:47.408Z,47.61
2016-08-18T10:04:09.164Z,46.50
2016-08-18T10:04:31.256Z,46.84
2016-08-18T10:04:53.082Z,47.28
2016-08-18T10:05:14.890Z,47.59
2016-08-18T10:05:36.887Z,47.83
2016-08-18T10:05:58.660Z,47.08
2016-08-18T10:06:25.418Z,47.11
2016-08-18T10:06:47.272Z,47.50
2016-08-18T10:07:09.033Z,48.07
2016-08-18T10:07:30.797Z,47.51
2016-08-18T10:08:19.689Z,46.52
2016-08-18T10:08:46.181Z,46.75
2016-08-18T10:09:07.917Z,46.87
2016-08-18T10:09:29.638Z,46.48
2016-08-18T10:09:56.529Z,47.06
2016-08-18T10:10:56.032Z,45.01
2016-08-18T10:11:17.798Z,45.15
2016-08-18T10:11:39.526Z,45.29
2016-08-18T10:12:02.251Z,44.75
2016-08-18T10:12:24.016Z,45.04
2016-08-18T10:12:46.729Z,45.09
2016-08-18T10:13:09.475Z,44.55
2016-08-18T10:13:31.215Z,44.21
2016-08-18T10:13:52.933Z,44.31
2016-08-18T10:14:14.654Z,44.22
2016-08-18T10:14:36.378Z,44.18
2016-08-18T10:14:58.102Z,44.35
2016-08-18T10:15:25.632Z,44.71
2016-08-18T10:15:47.359Z,44.62
2016-08-18T10:16:09.087Z,44.77
2016-08-18T10:16:30.823Z,44.71
2016-08-18T10:16:52.563Z,44.88
2016-08-18T10:17:14.499Z,44.78
2016-08-18T10:17:40.986Z,42.49
2016-08-18T10:18:02.709Z,42.13
2016-08-18T10:18:24.441Z,42.34
2016-08-18T10:18:47.161Z,42.74
2016-08-18T10:19:08.890Z,43.00
2016-08-18T10:19:30.621Z,43.43
2016-08-18T10:19:52.364Z,42.23
2016-08-18T10:20:14.089Z,40.23
2016-08-18T10:20:35.830Z,41.47
2016-08-18T10:20:57.562Z,40.74
2016-08-18T10:21:24.062Z,40.92
2016-08-18T10:21:50.561Z,40.83
2016-08-18T10:22:12.297Z,41.36
2016-08-18T10:22:34.012Z,41.83
2016-08-18T10:23:32.892Z,41.78
2016-08-18T10:23:54.656Z,41.73
2016-08-18T10:24:16.376Z,41.82
2016-08-18T10:24:40.934Z,41.90